Time;durP1;ratioP1;P1;durP2;ratioP2;P2;SDS_P1;SDS_P2;PMS_P1;PMS_P2;Temp;Humidity;BMP_temperature;BMP_pressure;BME280_temperature;BME280_humidity;BME280_pressure;Samples;Min_cycle;Max_cycle;Signal;HPM_P1;HPM_P2
2022/09/16 00:00:51;;;;;;;1.02;0.52;;;20.30;99.90;;;;;;5053215;28;20067;-75
2022/09/16 00:03:19;;;;;;;1.05;0.50;;;20.20;99.90;;;;;;5053238;28;20104;-77
2022/09/16 00:05:49;;;;;;;1.52;0.60;;;20.20;99.90;;;;;;5053999;28;20088;-75
2022/09/16 00:08:18;;;;;;;1.63;0.70;;;20.30;99.90;;;;;;5053089;28;20056;-75
2022/09/16 00:10:45;;;;;;;2.17;0.60;;;20.20;99.90;;;;;;5052331;28;20108;-75
2022/09/16 00:13:13;;;;;;;2.35;0.80;;;20.30;99.90;;;;;;5053018;28;20087;-74
2022/09/16 00:15:46;;;;;;;0.85;0.50;;;20.40;99.90;;;;;;5052853;28;20021;-75
2022/09/16 00:18:13;;;;;;;3.03;0.80;;;20.50;99.90;;;;;;5051914;28;20032;-75
2022/09/16 00:20:50;;;;;;;2.05;0.60;;;20.50;99.90;;;;;;5052550;28;20044;-75
2022/09/16 00:23:19;;;;;;;1.33;0.80;;;20.40;99.90;;;;;;5051687;28;20021;-75
2022/09/16 00:25:51;;;;;;;2.20;0.60;;;20.60;99.90;;;;;;5052811;28;20021;-74
2022/09/16 00:28:23;;;;;;;5.88;0.88;;;20.60;99.90;;;;;;5053212;28;20029;-74
2022/09/16 00:30:51;;;;;;;1.85;0.63;;;20.60;99.90;;;;;;5052790;28;20025;-74
2022/09/16 00:33:19;;;;;;;1.08;0.63;;;20.70;99.90;;;;;;5052686;28;20064;-74
2022/09/16 00:35:47;;;;;;;1.88;0.60;;;20.80;99.90;;;;;;5052718;28;20029;-75
2022/09/16 00:38:14;;;;;;;1.10;0.40;;;20.80;99.90;;;;;;5052794;28;20055;-75
2022/09/16 00:40:49;;;;;;;1.75;0.47;;;20.90;99.90;;;;;;5052674;28;20028;-75
2022/09/16 00:43:18;;;;;;;2.90;0.65;;;21.20;99.90;;;;;;5051698;28;20032;-75
2022/09/16 00:46:01;;;;;;;1.98;0.65;;;21.10;99.90;;;;;;5052742;28;20079;-76
2022/09/16 00:48:31;;;;;;;2.15;0.70;;;21.20;99.90;;;;;;5052774;28;20025;-75
2022/09/16 00:51:05;;;;;;;1.98;0.52;;;21.30;99.90;;;;;;5052666;28;20021;-77
2022/09/16 00:53:44;;;;;;;2.13;0.50;;;21.40;99.90;;;;;;5053254;28;20021;-74
2022/09/16 00:56:14;;;;;;;5.23;0.83;;;21.40;99.90;;;;;;5052684;28;20104;-76
2022/09/16 00:59:01;;;;;;;1.85;0.52;;;21.30;99.90;;;;;;5051349;28;20127;-76
2022/09/16 01:01:30;;;;;;;2.08;0.63;;;21.30;99.90;;;;;;5053159;28;20519;-76
2022/09/16 01:04:07;;;;;;;1.48;0.50;;;21.40;99.90;;;;;;5051565;28;20116;-76
2022/09/16 01:06:38;;;;;;;1.25;0.55;;;21.40;99.90;;;;;;5052636;28;20033;-76
2022/09/16 01:09:05;;;;;;;;;;;21.60;99.90;;;;;;5052982;28;20029;-78
2022/09/16 01:11:32;;;;;;;1.35;0.60;;;21.70;99.90;;;;;;5052460;28;19904;-77
2022/09/16 01:17:00;;;;;;;3.13;0.55;;;21.90;99.90;;;;;;5052935;28;20028;-77
2022/09/16 01:19:27;;;;;;;;;;;22.20;99.90;;;;;;5052494;28;20017;-76
2022/09/16 01:22:16;;;;;;;0.60;0.60;;;22.40;99.90;;;;;;5050771;28;20038;-75
2022/09/16 01:25:19;;;;;;;1.45;0.65;;;22.30;99.90;;;;;;5050523;28;20025;-75
2022/09/16 01:28:06;;;;;;;2.22;0.70;;;22.40;99.90;;;;;;5049496;28;20039;-76
2022/09/16 01:31:01;;;;;;;0.88;0.57;;;22.20;99.90;;;;;;5051551;28;20041;-76
2022/09/16 01:34:03;;;;;;;1.95;0.60;;;22.40;99.90;;;;;;5052385;28;20036;-76
2022/09/16 01:36:48;;;;;;;1.73;0.98;;;22.40;99.90;;;;;;5055231;28;20039;-75
2022/09/16 01:39:29;;;;;;;1.88;0.57;;;22.60;99.90;;;;;;5055808;28;20021;-76
2022/09/16 01:42:13;;;;;;;1.67;0.90;;;22.80;99.90;;;;;;5056415;28;20017;-76
2022/09/16 01:44:47;;;;;;;2.97;0.60;;;;;;;;;;5061837;28;20028;-75
2022/09/16 01:47:26;;;;;;;1.67;0.65;;;;;;;;;;5054377;28;20473;-77
2022/09/16 01:50:00;;;;;;;1.05;0.50;;;;;;;;;;5055911;28;20113;-76
2022/09/16 01:52:39;;;;;;;2.58;0.70;;;;;;;;;;5055431;28;20103;-76
2022/09/16 01:55:13;;;;;;;2.85;0.70;;;;;;;;;;5055559;28;20032;-77
2022/09/16 01:58:01;;;;;;;2.53;0.80;;;;;;;;;;5060472;28;20067;-75
2022/09/16 02:00:28;;;;;;;2.15;0.70;;;;;;;;;;5057583;28;20100;-76
2022/09/16 02:03:13;;;;;;;2.83;0.80;;;;;;;;;;5055837;28;20017;-76
2022/09/16 02:05:40;;;;;;;2.30;0.63;;;;;;;;;;5053495;28;20064;-76
2022/09/16 02:08:10;;;;;;;1.67;0.60;;;;;;;;;;5053291;28;20032;-78
2022/09/16 02:10:58;;;;;;;2.03;0.80;;;;;;;;;;5054495;28;20059;-76
2022/09/16 02:13:31;;;;;;;4.03;1.15;;;;;;;;;;5053934;28;20047;-76
2022/09/16 02:16:00;;;;;;;1.20;0.60;;;;;;;;;;5053869;28;20104;-75
2022/09/16 02:18:30;;;;;;;2.17;0.70;;;;;;;;;;5054238;28;20389;-74
2022/09/16 02:20:58;;;;;;;5.77;1.20;;;;;;;;;;5052931;28;20490;-76
2022/09/16 02:23:45;;;;;;;1.45;0.60;;;;;;;;;;5054391;28;20021;-75
2022/09/16 02:26:16;;;;;;;1.63;0.70;;;;;;;;;;5054605;28;20051;-76
2022/09/16 02:28:45;;;;;;;2.67;0.85;;;;;;;;;;5057084;28;20023;-77
2022/09/16 02:31:13;;;;;;;1.90;0.73;;;;;;;;;;5054890;28;20481;-76
2022/09/16 02:33:53;;;;;;;0.68;0.55;;;;;;;;;;5055001;28;20013;-76
2022/09/16 02:36:21;;;;;;;2.13;0.70;;;;;;;;;;5054996;28;20020;-76
2022/09/16 02:38:51;;;;;;;1.50;0.60;;;;;;;;;;5054918;28;20029;-76
2022/09/16 02:41:18;;;;;;;0.85;0.40;;;;;;;;;;5053339;28;20021;-76
2022/09/16 02:43:46;;;;;;;2.45;0.60;;;;;;;;;;5058394;28;20017;-75
2022/09/16 02:46:22;;;;;;;1.20;0.60;;;;;;;;;;5060439;28;20025;-74
2022/09/16 02:49:09;;;;;;;2.22;0.80;;;;;;;;;;5060732;28;20029;-75
2022/09/16 02:51:36;;;;;;;1.05;0.43;;;;;;;;;;5060309;28;20036;-76
2022/09/16 02:54:12;;;;;;;3.25;0.85;;;;;;;;;;5060551;28;20052;-74
2022/09/16 02:56:40;;;;;;;1.20;0.50;;;;;;;;;;5059464;28;20028;-76
2022/09/16 02:59:10;;;;;;;3.00;0.70;;;;;;;;;;5059109;28;20422;-76
2022/09/16 03:01:41;;;;;;;1.43;0.50;;;;;;;;;;5056250;28;20028;-76
2022/09/16 03:04:13;;;;;;;1.30;0.40;;;;;;;;;;5054550;28;20427;-75
2022/09/16 03:06:40;;;;;;;1.98;0.57;;;;;;;;;;5055023;28;20099;-75
2022/09/16 03:09:09;;;;;;;2.20;0.60;;;;;;;;;;5060419;28;20389;-75
2022/09/16 03:11:44;;;;;;;1.50;0.50;;;;;;;;;;5054154;28;20021;-75
2022/09/16 03:14:29;;;;;;;1.85;0.40;;;;;;;;;;5052698;28;20114;-75
2022/09/16 03:17:05;;;;;;;1.92;0.70;;;;;;;;;;5054311;28;20044;-75
2022/09/16 03:19:56;;;;;;;0.90;0.43;;;;;;;;;;5054174;28;20021;-75
2022/09/16 03:22:36;;;;;;;1.13;0.60;;;;;;;;;;5054187;28;20028;-75
2022/09/16 03:25:03;;;;;;;;;;;;;;;;;;5053030;28;20029;-75
2022/09/16 03:27:40;;;;;;;1.80;0.55;;;;;;;;;;5054181;28;19905;-75
2022/09/16 03:30:08;;;;;;;2.10;0.50;;;;;;;;;;5053406;28;20438;-76
2022/09/16 03:32:44;;;;;;;1.95;0.60;;;;;;;;;;5053973;28;20025;-75
2022/09/16 03:35:18;;;;;;;1.58;0.50;;;;;;;;;;5050606;28;20083;-75
2022/09/16 03:37:45;;;;;;;1.50;0.50;;;;;;;;;;5052694;28;20140;-74
2022/09/16 03:40:15;;;;;;;1.88;0.60;;;;;;;;;;5051665;28;20351;-75
2022/09/16 03:42:43;;;;;;;1.33;0.47;;;;;;;;;;5052028;28;20021;-74
2022/09/16 03:45:15;;;;;;;2.17;0.50;;;;;;;;;;5052996;28;20024;-74
2022/09/16 03:47:46;;;;;;;1.83;0.55;;;;;;;;;;5053113;28;20035;-74
2022/09/16 03:50:13;;;;;;;1.95;0.60;;;;;;;;;;5052107;28;20075;-74
2022/09/16 03:52:41;;;;;;;1.25;0.45;;;;;;;;;;5053433;28;20025;-75
2022/09/16 03:55:09;;;;;;;1.52;0.35;;;;;;;;;;5053083;28;20388;-74
2022/09/16 03:57:37;;;;;;;2.00;0.50;;;;;;;;;;5052914;28;20500;-74
2022/09/16 04:00:05;;;;;;;1.58;0.50;;;;;;;;;;5053662;28;20420;-74
2022/09/16 04:02:32;;;;;;;2.40;0.60;;;;;;;;;;5053410;28;20032;-74
2022/09/16 04:04:59;;;;;;;1.58;0.30;;;;;;;;;;5053260;28;20525;-75
2022/09/16 04:07:26;;;;;;;2.42;0.47;;;;;;;;;;5053111;28;20393;-75
2022/09/16 04:09:54;;;;;;;1.95;0.35;;;;;;;;;;5053499;28;20029;-75
2022/09/16 04:12:21;;;;;;;2.00;0.47;;;;;;;;;;5051759;28;20441;-74
2022/09/16 04:14:51;;;;;;;5.05;0.60;;;;;;;;;;5053040;28;20045;-74
2022/09/16 04:17:18;;;;;;;1.55;0.47;;;;;;;;;;5053267;28;20052;-74
2022/09/16 04:19:45;;;;;;;1.67;0.50;;;;;;;;;;5051960;28;20104;-75
2022/09/16 04:22:12;;;;;;;1.63;0.40;;;;;;;;;;5051753;28;20025;-75
2022/09/16 04:24:40;;;;;;;1.70;0.60;;;;;;;;;;5051903;28;20025;-77
2022/09/16 04:27:07;;;;;;;2.13;0.57;;;;;;;;;;5053602;28;20029;-76
2022/09/16 04:29:34;;;;;;;1.95;0.50;;;;;;;;;;5053906;28;20108;-76
2022/09/16 04:32:01;;;;;;;1.55;0.50;;;;;;;;;;5051953;28;20108;-75
2022/09/16 04:34:28;;;;;;;1.48;0.52;;;;;;;;;;5053161;28;20430;-75
2022/09/16 04:36:55;;;;;;;2.25;0.40;;;;;;;;;;5051812;28;20044;-76
2022/09/16 04:39:23;;;;;;;1.83;0.50;;;;;;;;;;5053246;28;20392;-77
2022/09/16 04:41:50;;;;;;;0.88;0.43;;;;;;;;;;5053615;28;20022;-76
2022/09/16 04:44:17;;;;;;;3.35;0.40;;;;;;;;;;5052002;28;20059;-76
2022/09/16 04:46:44;;;;;;;2.13;0.63;;;;;;;;;;5053101;28;20025;-76
2022/09/16 04:49:11;;;;;;;2.10;0.50;;;;;;;;;;5053233;28;20052;-76
2022/09/16 04:51:39;;;;;;;2.28;0.63;;;;;;;;;;5053176;28;20095;-76
2022/09/16 04:54:06;;;;;;;2.97;0.55;;;;;;;;;;5051821;28;20033;-76
2022/09/16 04:56:33;;;;;;;2.55;0.65;;;;;;;;;;5051986;28;20021;-76
2022/09/16 04:59:01;;;;;;;2.20;0.70;;;;;;;;;;5052875;28;20048;-76
2022/09/16 05:01:30;;;;;;;2.08;0.55;;;;;;;;;;5052996;28;20096;-75
2022/09/16 05:04:01;;;;;;;1.65;0.50;;;;;;;;;;5052648;28;20078;-74
2022/09/16 05:06:31;;;;;;;3.03;0.65;;;;;;;;;;5051270;28;20025;-74
2022/09/16 05:08:59;;;;;;;1.60;0.40;;;;;;;;;;5056524;28;20029;-75
2022/09/16 05:11:28;;;;;;;1.65;0.95;;;;;;;;;;5056610;28;20496;-75
2022/09/16 05:13:58;;;;;;;2.25;0.55;;;;;;;;;;5056137;28;20049;-76
2022/09/16 05:16:26;;;;;;;2.85;0.55;;;;;;;;;;5057046;28;20078;-75
2022/09/16 05:18:54;;;;;;;1.85;0.60;;;;;;;;;;5055112;28;20048;-77
2022/09/16 05:21:23;;;;;;;1.35;0.47;;;;;;;;;;5056633;28;20021;-76
2022/09/16 05:23:50;;;;;;;2.17;0.60;;;;;;;;;;5056324;28;20025;-75
2022/09/16 05:26:18;;;;;;;1.77;0.70;;;;;;;;;;5055017;28;20477;-75
2022/09/16 05:28:46;;;;;;;1.20;0.60;;;;;;;;;;5056474;28;20112;-78
2022/09/16 05:31:20;;;;;;;3.03;0.50;;;;;;;;;;5057187;28;20021;-78
2022/09/16 05:33:53;;;;;;;2.50;0.60;;;;;;;;;;5057227;28;20021;-78
2022/09/16 05:36:21;;;;;;;1.80;0.70;;;;;;;;;;5055659;28;20428;-78
2022/09/16 05:38:49;;;;;;;1.92;0.50;;;;;;;;;;5055491;28;20032;-78
2022/09/16 05:41:16;;;;;;;4.43;0.65;;;;;;;;;;5056623;28;20029;-80
2022/09/16 05:43:43;;;;;;;2.65;0.70;;;;;;;;;;5056225;28;20017;-80
2022/09/16 05:46:13;;;;;;;1.92;0.90;;;;;;;;;;5056356;28;20017;-79
2022/09/16 05:48:40;;;;;;;3.30;0.70;;;;;;;;;;5056256;28;20021;-79
2022/09/16 05:51:07;;;;;;;0.75;0.30;;;;;;;;;;5056502;28;20025;-77
2022/09/16 05:53:34;;;;;;;2.38;0.47;;;;;;;;;;5056362;28;20032;-77
2022/09/16 05:56:09;;;;;;;2.28;0.45;;;23.80;88.50;;;;;;5056462;28;20025;-78
2022/09/16 05:58:38;;;;;;;2.40;0.60;;;23.70;78.40;;;;;;5056258;28;20013;-79
2022/09/16 06:01:12;;;;;;;0.98;0.40;;;23.50;78.70;;;;;;5054810;28;20550;-79
2022/09/16 06:03:41;;;;;;;1.50;0.65;;;23.50;78.10;;;;;;5056061;28;20040;-78
2022/09/16 06:06:11;;;;;;;1.75;0.60;;;23.40;78.20;;;;;;5056152;28;20021;-78
2022/09/16 06:08:39;;;;;;;;;;;23.50;79.20;;;;;;5056101;28;20056;-77
2022/09/16 06:11:09;;;;;;;1.80;0.65;;;23.50;78.80;;;;;;5054236;28;20398;-77
2022/09/16 06:13:37;;;;;;;1.80;0.65;;;23.60;79.70;;;;;;5055266;28;20098;-78
2022/09/16 06:16:06;;;;;;;1.60;0.63;;;23.70;79.50;;;;;;5055597;28;20025;-75
2022/09/16 06:18:34;;;;;;;1.48;0.55;;;23.70;81.30;;;;;;5054916;28;20531;-78
2022/09/16 06:21:11;;;;;;;2.60;0.65;;;23.60;79.80;;;;;;5054099;28;20085;-79
2022/09/16 06:23:39;;;;;;;2.70;0.55;;;23.40;79.10;;;;;;5055960;28;20021;-77
2022/09/16 06:26:10;;;;;;;3.22;0.50;;;23.40;79.20;;;;;;5055542;28;20071;-80
2022/09/16 06:28:38;;;;;;;2.80;0.73;;;23.40;79.30;;;;;;5055381;28;20025;-78
2022/09/16 06:31:21;;;;;;;1.67;0.70;;;23.30;79.10;;;;;;5054918;28;20024;-75
2022/09/16 06:33:52;;;;;;;2.85;0.82;;;23.20;79.40;;;;;;5054951;28;20024;-76
2022/09/16 06:36:29;;;;;;;2.40;0.80;;;23.20;80.50;;;;;;5054782;28;20017;-76
2022/09/16 06:38:57;;;;;;;1.85;0.75;;;23.10;80.50;;;;;;5054831;28;20021;-76
2022/09/16 06:41:25;;;;;;;3.25;0.98;;;23.00;81.20;;;;;;5054775;28;20473;-76
2022/09/16 06:43:53;;;;;;;1.88;0.65;;;23.00;81.40;;;;;;5054699;28;20013;-77
2022/09/16 06:46:23;;;;;;;3.47;0.82;;;22.90;81.10;;;;;;5053876;28;20021;-77
2022/09/16 06:48:53;;;;;;;3.33;0.95;;;22.70;81.20;;;;;;5054815;28;20100;-77
2022/09/16 06:51:22;;;;;;;3.03;0.60;;;22.70;81.10;;;;;;5053437;28;20025;-75
2022/09/16 06:53:51;;;;;;;1.83;0.60;;;22.50;81.90;;;;;;5054678;28;20029;-74
2022/09/16 06:56:20;;;;;;;3.65;0.70;;;22.50;82.30;;;;;;5055004;28;20112;-75
2022/09/16 06:58:52;;;;;;;1.42;0.70;;;22.40;83.00;;;;;;5054658;28;20017;-74
2022/09/16 07:01:21;;;;;;;2.63;0.80;;;22.40;81.10;;;;;;5054405;28;20108;-74
2022/09/16 07:03:51;;;;;;;3.13;0.93;;;22.40;82.00;;;;;;5052932;28;20020;-74
2022/09/16 07:06:21;;;;;;;2.90;0.90;;;22.30;81.90;;;;;;5054336;28;20354;-73
2022/09/16 07:08:48;;;;;;;1.70;0.60;;;22.20;81.50;;;;;;5054391;28;20017;-73
2022/09/16 07:11:23;;;;;;;1.90;0.70;;;22.10;82.00;;;;;;5052847;28;20039;-73
2022/09/16 07:13:51;;;;;;;4.13;0.70;;;22.00;82.50;;;;;;5054209;28;20072;-74
2022/09/16 07:16:24;;;;;;;3.30;0.65;;;21.90;83.30;;;;;;5052953;28;20025;-72
2022/09/16 07:18:56;;;;;;;3.17;0.85;;;21.90;82.50;;;;;;5052835;28;20036;-72
2022/09/16 07:21:28;;;;;;;1.70;0.60;;;21.80;82.60;;;;;;5052800;28;20552;-73
2022/09/16 07:23:58;;;;;;;2.47;0.63;;;21.70;83.50;;;;;;5054039;28;20028;-73
2022/09/16 07:26:28;;;;;;;1.58;0.60;;;21.50;84.90;;;;;;5053923;28;20100;-72
2022/09/16 07:28:58;;;;;;;2.05;0.50;;;21.30;84.30;;;;;;5053177;28;20489;-73
2022/09/16 07:31:28;;;;;;;2.67;0.90;;;21.00;85.90;;;;;;5051800;28;20032;-72
2022/09/16 07:33:57;;;;;;;3.37;0.90;;;21.00;85.40;;;;;;5052528;28;20102;-72
2022/09/16 07:36:27;;;;;;;3.10;1.05;;;21.00;84.90;;;;;;5053230;28;20254;-69
2022/09/16 07:38:59;;;;;;;3.70;1.02;;;21.00;85.00;;;;;;5052093;28;20466;-69
2022/09/16 07:41:28;;;;;;;2.00;0.80;;;20.80;86.40;;;;;;5053034;28;20013;-69
2022/09/16 07:43:58;;;;;;;4.17;0.60;;;20.60;85.70;;;;;;5053259;28;20037;-70
2022/09/16 07:46:27;;;;;;;2.15;0.77;;;20.40;86.50;;;;;;5053520;28;20059;-70
2022/09/16 07:48:55;;;;;;;2.78;0.90;;;20.20;87.00;;;;;;5053733;28;20025;-71
2022/09/16 07:51:24;;;;;;;2.38;0.70;;;20.00;88.20;;;;;;5052129;28;20485;-71
2022/09/16 07:53:58;;;;;;;3.03;1.00;;;19.90;89.60;;;;;;5052507;28;20025;-72
2022/09/16 07:56:27;;;;;;;2.28;1.00;;;19.70;88.80;;;;;;5053345;28;20051;-72
2022/09/16 07:58:56;;;;;;;3.28;0.80;;;19.70;89.40;;;;;;5053253;28;20131;-72
2022/09/16 08:01:24;;;;;;;2.22;0.77;;;19.60;89.90;;;;;;5053305;28;20021;-72
2022/09/16 08:03:51;;;;;;;2.83;1.02;;;19.40;90.50;;;;;;5052641;28;20013;-72
2022/09/16 08:06:21;;;;;;;2.35;0.85;;;19.30;90.20;;;;;;5050757;28;20064;-72
2022/09/16 08:08:52;;;;;;;2.58;1.00;;;19.20;90.90;;;;;;5051228;28;20036;-72
2022/09/16 08:11:19;;;;;;;;;;;19.10;90.80;;;;;;5050571;28;20078;-72
2022/09/16 08:13:46;;;;;;;3.20;1.15;;;19.00;91.10;;;;;;5049949;28;19973;-72
2022/09/16 08:16:16;;;;;;;3.20;0.95;;;18.80;91.80;;;;;;5051969;28;20035;-73
2022/09/16 08:18:45;;;;;;;4.35;1.05;;;18.70;92.20;;;;;;5052023;28;20039;-75
2022/09/16 08:21:15;;;;;;;4.38;0.85;;;18.60;93.50;;;;;;5053169;28;20029;-73
2022/09/16 08:23:42;;;;;;;3.78;1.15;;;18.40;96.90;;;;;;5051230;28;20020;-75
2022/09/16 08:26:11;;;;;;;3.83;1.27;;;18.30;96.30;;;;;;5051739;28;20389;-75
2022/09/16 08:28:41;;;;;;;4.88;1.05;;;18.20;96.60;;;;;;5051882;28;20138;-75
2022/09/16 08:31:09;;;;;;;3.90;1.10;;;18.20;97.30;;;;;;5052361;28;20025;-75
2022/09/16 08:33:40;;;;;;;4.10;1.63;;;18.10;98.50;;;;;;5051886;28;20033;-75
2022/09/16 08:36:18;;;;;;;2.75;1.17;;;18.00;97.50;;;;;;5053342;28;20115;-75
2022/09/16 08:38:47;;;;;;;4.78;1.60;;;18.00;98.20;;;;;;5053147;28;20555;-75
2022/09/16 08:41:23;;;;;;;3.67;1.60;;;18.00;98.20;;;;;;5053181;28;20017;-76
2022/09/16 08:44:32;;;;;;;4.90;2.25;;;18.10;98.00;;;;;;5055797;28;20028;-76
2022/09/16 08:47:02;;;;;;;7.65;4.35;;;18.10;96.80;;;;;;5055822;28;20365;-76
2022/09/16 08:49:49;;;;;;;7.13;4.82;;;18.10;96.60;;;;;;5057140;28;20465;-76
2022/09/16 08:52:33;;;;;;;6.22;3.00;;;18.20;96.80;;;;;;5057068;28;20024;-76
2022/09/16 08:55:40;;;;;;;5.35;2.20;;;18.20;96.80;;;;;;5055724;28;20025;-76
2022/09/16 08:58:22;;;;;;;4.78;2.30;;;18.30;97.00;;;;;;5055801;28;20542;-76
2022/09/16 09:00:58;;;;;;;5.65;1.80;;;18.40;96.80;;;;;;5056104;28;20048;-76
2022/09/16 09:03:36;;;;;;;3.33;1.70;;;18.60;96.40;;;;;;5056902;28;20017;-75
2022/09/16 09:06:25;;;;;;;4.57;1.70;;;18.60;96.80;;;;;;5056813;28;20021;-75
2022/09/16 09:09:13;;;;;;;2.72;1.20;;;18.50;96.60;;;;;;5056887;28;20020;-75
2022/09/16 09:12:04;;;;;;;2.05;1.17;;;18.50;96.90;;;;;;5056563;28;20025;-74
2022/09/16 09:14:32;;;;;;;3.05;1.33;;;18.60;96.80;;;;;;5054844;28;20029;-75
2022/09/16 09:17:17;;;;;;;3.08;1.10;;;18.60;96.10;;;;;;5056779;28;20019;-75
2022/09/16 09:20:05;;;;;;;4.28;1.20;;;18.60;96.60;;;;;;5056917;28;20032;-75
2022/09/16 09:22:46;;;;;;;2.50;1.35;;;18.40;97.20;;;;;;5055328;28;20017;-76
2022/09/16 09:25:31;;;;;;;3.50;1.25;;;18.30;97.20;;;;;;5057117;28;20044;-76
2022/09/16 09:28:22;;;;;;;3.30;1.23;;;18.20;97.30;;;;;;5056830;28;20120;-75
2022/09/16 09:31:12;;;;;;;;;;;18.10;97.60;;;;;;5055894;28;20500;-75
2022/09/16 09:34:15;;;;;;;3.80;1.38;;;18.20;97.30;;;;;;5056065;28;19912;-75
2022/09/16 09:37:00;;;;;;;5.45;1.13;;;18.20;97.60;;;;;;5056373;28;20017;-75
2022/09/16 09:40:07;;;;;;;2.97;1.05;;;18.10;97.60;;;;;;5055320;28;20029;-75
2022/09/16 09:43:13;;;;;;;4.22;1.17;;;18.00;97.60;;;;;;5054746;28;20028;-74
2022/09/16 09:46:02;;;;;;;3.03;1.20;;;17.90;97.60;;;;;;5031501;28;20033;-75
2022/09/16 09:48:51;;;;;;;3.30;1.08;;;17.90;98.10;;;;;;5056094;28;20052;-76
2022/09/16 09:51:34;;;;;;;3.03;1.10;;;17.90;98.10;;;;;;5055836;28;20032;-75
2022/09/16 09:54:24;;;;;;;4.32;1.13;;;17.80;99.00;;;;;;5054768;28;20059;-74
2022/09/16 09:57:23;;;;;;;2.78;1.05;;;17.60;98.40;;;;;;5055324;28;20029;-75
2022/09/16 09:59:53;;;;;;;4.13;1.23;;;17.40;98.50;;;;;;5055384;28;20037;-76
2022/09/16 10:02:22;;;;;;;2.55;1.27;;;17.20;99.00;;;;;;5056288;28;20018;-75
2022/09/16 10:04:50;;;;;;;4.00;1.38;;;17.10;99.60;;;;;;5054649;28;20036;-75
2022/09/16 10:07:21;;;;;;;2.85;1.20;;;17.10;99.20;;;;;;5054479;28;20036;-75
2022/09/16 10:09:51;;;;;;;1.55;0.73;;;17.10;99.60;;;;;;5054607;28;20086;-76
2022/09/16 10:12:31;;;;;;;4.35;1.20;;;17.10;99.00;;;;;;5054417;28;20131;-75
2022/09/16 10:14:59;;;;;;;4.50;1.30;;;17.10;99.20;;;;;;5054238;28;20045;-74
2022/09/16 10:17:30;;;;;;;4.07;1.20;;;17.20;98.60;;;;;;5055235;28;20021;-73
2022/09/16 10:20:18;;;;;;;3.40;1.30;;;17.20;99.20;;;;;;5055392;28;20028;-75
2022/09/16 10:23:14;;;;;;;4.07;1.35;;;17.10;99.20;;;;;;5055432;28;20028;-75
2022/09/16 10:25:44;;;;;;;4.97;1.52;;;17.30;99.90;;;;;;5055338;28;20035;-75
2022/09/16 10:28:23;;;;;;;3.17;1.10;;;17.20;99.90;;;;;;5054108;28;20041;-73
2022/09/16 10:30:56;;;;;;;1.60;0.88;;;17.10;99.50;;;;;;5054023;28;20044;-73
2022/09/16 10:33:42;;;;;;;3.72;1.42;;;17.00;99.40;;;;;;5055093;28;20512;-73
2022/09/16 10:36:33;;;;;;;2.95;0.95;;;16.90;99.40;;;;;;5054971;28;20040;-73
2022/09/16 10:39:02;;;;;;;2.50;1.02;;;16.80;99.90;;;;;;5052137;28;20488;-73
2022/09/16 10:41:34;;;;;;;2.63;1.02;;;16.70;99.90;;;;;;5053627;28;20388;-74
2022/09/16 10:44:29;;;;;;;3.35;1.10;;;16.60;99.70;;;;;;5055016;28;20108;-72
2022/09/16 10:47:08;;;;;;;3.65;1.10;;;16.60;99.90;;;;;;5054713;28;20041;-74
2022/09/16 10:49:46;;;;;;;3.45;1.10;;;16.50;99.90;;;;;;5055021;28;20020;-74
2022/09/16 10:52:17;;;;;;;2.70;0.93;;;16.50;99.90;;;;;;5053636;28;20025;-74
2022/09/16 10:54:44;;;;;;;;;;;16.30;99.90;;;;;;5055295;28;20020;-75
2022/09/16 10:57:30;;;;;;;2.53;0.90;;;16.20;99.90;;;;;;5053415;28;19905;-73
2022/09/16 11:00:10;;;;;;;1.67;0.80;;;16.20;99.90;;;;;;5053416;28;20028;-75
2022/09/16 11:02:51;;;;;;;3.42;1.13;;;16.10;99.90;;;;;;5054580;28;20384;-74
2022/09/16 11:05:35;;;;;;;2.30;0.80;;;16.00;99.90;;;;;;5054278;28;20062;-73
2022/09/16 11:08:16;;;;;;;2.50;0.90;;;16.00;99.90;;;;;;5053208;28;20025;-73
2022/09/16 11:11:20;;;;;;;1.52;0.90;;;15.90;99.90;;;;;;5054465;28;20024;-74
2022/09/16 11:14:06;;;;;;;2.53;0.80;;;15.80;99.90;;;;;;5052809;28;20412;-74
2022/09/16 11:16:56;;;;;;;4.38;1.50;;;15.70;99.90;;;;;;5055047;28;20377;-74
2022/09/16 11:20:01;;;;;;;1.92;1.08;;;15.70;99.90;;;;;;5054376;28;20101;-74
2022/09/16 11:22:42;;;;;;;3.28;1.13;;;15.60;99.90;;;;;;5052978;28;20028;-73
2022/09/16 11:25:25;;;;;;;2.58;1.30;;;15.60;99.90;;;;;;5054284;28;20051;-74
2022/09/16 11:28:27;;;;;;;3.15;1.23;;;15.70;99.90;;;;;;5052864;28;20485;-75
2022/09/16 11:31:17;;;;;;;2.85;0.90;;;15.70;99.90;;;;;;5052023;28;20112;-74
2022/09/16 11:34:26;;;;;;;2.57;0.63;;;15.80;99.90;;;;;;5023826;28;20477;-73
2022/09/16 11:37:20;;;;;;;2.63;0.80;;;15.80;99.90;;;;;;5054113;28;20262;-73
2022/09/16 11:40:10;;;;;;;2.88;0.70;;;15.90;99.90;;;;;;5036263;28;20025;-74
2022/09/16 11:42:41;;;;;;;2.25;0.80;;;16.00;99.90;;;;;;5054256;28;20469;-73
2022/09/16 11:45:47;;;;;;;2.78;0.70;;;16.00;99.90;;;;;;5053871;28;20044;-73
2022/09/16 11:48:38;;;;;;;1.83;0.65;;;16.00;99.90;;;;;;5052565;28;20021;-73
2022/09/16 11:51:14;;;;;;;3.60;0.70;;;16.10;99.90;;;;;;5053766;28;20040;-74
2022/09/16 11:53:56;;;;;;;5.40;0.90;;;16.10;99.90;;;;;;5053709;28;20179;-74
2022/09/16 11:56:47;;;;;;;2.33;0.60;;;16.00;99.90;;;;;;5053652;28;20033;-74
2022/09/16 11:59:27;;;;;;;1.67;0.57;;;16.00;99.90;;;;;;5053724;28;20017;-74
2022/09/16 12:02:26;;;;;;;2.78;0.60;;;16.00;99.90;;;;;;5053659;28;20028;-73
2022/09/16 12:05:06;;;;;;;2.17;0.50;;;16.00;99.90;;;;;;5052810;28;20079;-74
2022/09/16 12:07:37;;;;;;;2.47;0.70;;;15.90;99.90;;;;;;5053386;28;20032;-74
2022/09/16 12:10:25;;;;;;;2.17;0.50;;;15.90;99.90;;;;;;5053424;28;20025;-73
2022/09/16 12:13:09;;;;;;;2.38;0.60;;;15.80;99.90;;;;;;5053416;28;20116;-75
2022/09/16 12:15:51;;;;;;;1.67;0.50;;;15.80;99.90;;;;;;5052091;28;20040;-73
2022/09/16 12:18:26;;;;;;;2.65;0.60;;;15.70;99.90;;;;;;5051602;28;20040;-73
2022/09/16 12:21:09;;;;;;;2.13;0.65;;;15.70;99.90;;;;;;5053215;28;20032;-74
2022/09/16 12:23:44;;;;;;;2.95;0.80;;;15.70;99.90;;;;;;5053586;28;20025;-74
2022/09/16 12:26:52;;;;;;;2.38;0.70;;;15.80;99.90;;;;;;5052008;28;20029;-73
2022/09/16 12:29:23;;;;;;;2.00;0.40;;;15.70;99.90;;;;;;5051914;28;20039;-74
2022/09/16 12:32:08;;;;;;;2.75;0.90;;;15.80;99.90;;;;;;5053235;28;20017;-73
2022/09/16 12:35:02;;;;;;;1.23;0.40;;;15.80;99.90;;;;;;5053099;28;20055;-73
2022/09/16 12:37:38;;;;;;;2.13;0.80;;;15.90;99.90;;;;;;5052990;28;20032;-73
2022/09/16 12:40:13;;;;;;;2.50;0.85;;;15.90;99.90;;;;;;5053709;28;20045;-75
2022/09/16 12:42:55;;;;;;;1.42;0.52;;;15.80;99.90;;;;;;5051755;28;20032;-74
2022/09/16 12:45:53;;;;;;;2.92;0.50;;;15.90;99.90;;;;;;5053083;28;20021;-73
2022/09/16 12:48:48;;;;;;;3.13;0.65;;;15.90;99.90;;;;;;5051608;28;20497;-73
2022/09/16 12:52:06;;;;;;;3.10;0.60;;;15.90;99.90;;;;;;5052908;28;20108;-73
2022/09/16 12:55:07;;;;;;;2.03;0.60;;;15.80;99.90;;;;;;5051632;28;20087;-74
2022/09/16 12:57:35;;;;;;;2.95;0.60;;;15.80;99.90;;;;;;5052972;28;20071;-74
2022/09/16 13:00:07;;;;;;;3.58;0.60;;;15.80;99.90;;;;;;5051479;28;20113;-74
2022/09/16 13:02:57;;;;;;;1.60;0.30;;;15.80;99.90;;;;;;5052825;28;20048;-75
2022/09/16 13:05:37;;;;;;;2.58;0.68;;;15.80;99.90;;;;;;5052839;28;20409;-72
2022/09/16 13:08:18;;;;;;;1.55;0.45;;;15.80;99.90;;;;;;5051964;28;20051;-75
2022/09/16 13:10:45;;;;;;;;;;;15.80;99.90;;;;;;5052231;28;20052;-73
2022/09/16 13:13:32;;;;;;;3.45;0.65;;;15.80;99.90;;;;;;5052546;28;19958;-74
2022/09/16 13:16:03;;;;;;;3.03;0.63;;;15.80;99.90;;;;;;5051189;28;20492;-74
2022/09/16 13:18:49;;;;;;;2.88;0.70;;;15.70;99.90;;;;;;5051678;28;20029;-74
2022/09/16 13:21:28;;;;;;;2.60;0.50;;;15.80;99.90;;;;;;5052657;28;20048;-74
2022/09/16 13:24:10;;;;;;;1.70;0.40;;;15.80;99.90;;;;;;5053186;28;20024;-72
2022/09/16 13:26:45;;;;;;;1.50;0.40;;;15.80;99.90;;;;;;5052742;28;20022;-73
2022/09/16 13:29:38;;;;;;;2.45;0.70;;;15.90;99.90;;;;;;5053948;28;20059;-74
2022/09/16 13:32:24;;;;;;;1.27;0.55;;;15.90;99.90;;;;;;5056445;28;20017;-74
2022/09/16 13:35:04;;;;;;;3.38;0.50;;;15.90;99.90;;;;;;5041032;28;20029;-74
2022/09/16 13:37:32;;;;;;;2.55;0.60;;;15.80;99.90;;;;;;5056237;28;20104;-73
2022/09/16 13:40:20;;;;;;;1.48;0.50;;;15.80;99.90;;;;;;5054780;28;20477;-72
2022/09/16 13:42:47;;;;;;;1.83;0.50;;;15.80;99.90;;;;;;5056106;28;20021;-73
2022/09/16 13:45:34;;;;;;;2.30;0.50;;;15.80;99.90;;;;;;5056013;28;20025;-73
2022/09/16 13:48:21;;;;;;;1.42;0.60;;;15.80;99.90;;;;;;5056518;28;20024;-74
2022/09/16 13:51:00;;;;;;;1.55;0.30;;;15.90;99.90;;;;;;5056149;28;20082;-73
2022/09/16 13:53:32;;;;;;;2.03;0.50;;;15.80;99.90;;;;;;5054679;28;20499;-73
2022/09/16 13:56:26;;;;;;;2.33;0.40;;;15.80;99.90;;;;;;5055833;28;20021;-74
2022/09/16 13:59:04;;;;;;;1.40;0.30;;;15.80;99.90;;;;;;5056130;28;20028;-74
2022/09/16 14:02:02;;;;;;;0.90;0.43;;;15.80;99.90;;;;;;5038078;28;20426;-74
2022/09/16 14:04:40;;;;;;;1.80;0.40;;;15.80;99.90;;;;;;5055747;28;20451;-73
2022/09/16 14:07:34;;;;;;;3.42;0.95;;;15.70;99.90;;;;;;5054351;28;20433;-72
2022/09/16 14:10:07;;;;;;;2.97;0.60;;;15.70;99.90;;;;;;5055690;28;20032;-73
2022/09/16 14:12:55;;;;;;;3.88;0.52;;;15.60;99.90;;;;;;5055697;28;20103;-73